Time;durP1;ratioP1;P1;durP2;ratioP2;P2;SDS_P1;SDS_P2;PMS_P1;PMS_P2;Temp;Humidity;BMP_temperature;BMP_pressure;BME280_temperature;BME280_humidity;BME280_pressure;Samples;Min_cycle;Max_cycle;Signal;HPM_P1;HPM_P2
2022/11/27 00:01:20;;;;;;;10.50;9.38;;;;;;;7.32;63.90;102562.42;1559717;91;21136;-58
2022/11/27 00:03:47;;;;;;;10.58;9.30;;;;;;;7.31;63.74;102570.64;1504979;94;21177;-59
2022/11/27 00:06:19;;;;;;;9.95;8.93;;;;;;;7.28;63.73;102570.98;1520271;94;21159;-59
2022/11/27 00:08:47;;;;;;;11.60;8.90;;;;;;;7.26;63.97;102580.43;1574965;90;21081;-58
2022/11/27 00:11:18;;;;;;;10.38;9.03;;;;;;;7.24;64.11;102571.76;1550018;90;21103;-58
2022/11/27 00:13:45;;;;;;;9.98;8.83;;;;;;;7.25;63.88;102582.58;1576056;90;21072;-58
2022/11/27 00:16:12;;;;;;;10.55;8.88;;;;;;;7.25;63.82;102586.47;1558558;90;21057;-59
2022/11/27 00:18:39;;;;;;;12.68;9.33;;;;;;;7.26;63.97;102589.49;1568864;90;21101;-58
2022/11/27 00:21:09;;;;;;;9.08;8.18;;;;;;;7.24;63.76;102592.47;1568717;90;21086;-58
2022/11/27 00:23:36;;;;;;;9.53;8.53;;;;;;;7.21;63.80;102584.21;1540208;91;21582;-58
2022/11/27 00:26:03;;;;;;;10.28;8.73;;;;;;;7.20;63.32;102577.72;1525256;93;21248;-58
2022/11/27 00:28:30;;;;;;;10.23;9.18;;;;;;;7.17;63.30;102582.40;1499033;94;21078;-58
2022/11/27 00:31:05;;;;;;;10.78;8.48;;;;;;;7.12;63.60;102572.39;1504025;94;21157;-58
2022/11/27 00:33:33;;;;;;;10.03;9.03;;;;;;;7.14;63.92;102572.00;1505958;94;21132;-58
2022/11/27 00:36:05;;;;;;;11.70;8.70;;;;;;;7.16;64.12;102568.14;1522054;92;21148;-58
2022/11/27 00:38:31;;;;;;;10.70;9.00;;;;;;;7.16;63.72;102574.61;1536078;92;21057;-58
2022/11/27 00:41:08;;;;;;;9.53;8.63;;;;;;;7.13;63.76;102578.45;1540562;92;21130;-58
2022/11/27 00:43:36;;;;;;;9.28;8.28;;;;;;;7.10;63.79;102576.66;1496308;95;21631;-58
2022/11/27 00:46:02;;;;;;;9.15;7.83;;;;;;;7.08;64.06;102569.70;1483484;95;21089;-58
2022/11/27 00:48:29;;;;;;;9.70;8.53;;;;;;;7.06;64.08;102564.50;1497651;95;21592;-58
2022/11/27 00:51:02;;;;;;;10.68;8.78;;;;;;;7.06;64.30;102562.32;1518170;91;21045;-58
2022/11/27 00:53:29;;;;;;;9.63;7.70;;;;;;;7.08;64.33;102559.34;1493228;94;21147;-59
2022/11/27 00:55:56;;;;;;;9.38;8.33;;;;;;;7.10;64.41;102557.66;1529534;91;21101;-58
2022/11/27 00:58:23;;;;;;;10.53;9.10;;;;;;;7.12;64.17;102565.03;1560629;90;21569;-58
2022/11/27 01:00:58;;;;;;;10.03;9.00;;;;;;;7.14;64.02;102559.47;1574439;90;21089;-58
2022/11/27 01:03:25;;;;;;;8.98;8.03;;;;;;;7.16;64.23;102565.55;1563255;90;21058;-58
2022/11/27 01:05:53;;;;;;;12.93;10.40;;;;;;;7.17;64.18;102562.13;1550614;91;21087;-58
2022/11/27 01:08:20;;;;;;;9.88;8.88;;;;;;;7.17;64.40;102557.80;1557002;91;21111;-58
2022/11/27 01:10:54;;;;;;;12.03;9.08;;;;;;;7.17;64.32;102569.91;1553236;90;21126;-58
2022/11/27 01:13:30;;;;;;;9.70;8.33;;;;;;;7.13;63.86;102565.50;1510843;94;21173;-58
2022/11/27 01:16:07;;;;;;;11.15;8.55;;;;;;;7.12;64.19;102570.21;1509604;94;21091;-58
2022/11/27 01:18:35;;;;;;;9.35;8.38;;;;;;;7.10;64.08;102576.66;1504343;94;21343;-59
2022/11/27 01:21:01;;;;;;;11.28;9.18;;;;;;;7.11;64.36;102580.98;1573383;88;21056;-58
2022/11/27 01:23:28;;;;;;;10.72;9.48;;;;;;;7.13;64.17;102579.30;1617193;88;21490;-58
2022/11/27 01:25:55;;;;;;;9.45;8.28;;;;;;;7.13;64.00;102568.09;1612763;88;21073;-58
2022/11/27 01:28:22;;;;;;;9.30;8.28;;;;;;;7.15;64.34;102578.91;1613890;88;21113;-59
2022/11/27 01:30:49;;;;;;;11.25;9.75;;;;;;;7.16;64.26;102577.20;1608104;88;21093;-58
2022/11/27 01:33:17;;;;;;;11.03;8.95;;;;;;;7.15;64.22;102581.94;1613324;88;21184;-58
2022/11/27 01:36:01;;;;;;;11.00;8.90;;;;;;;7.17;64.35;102582.84;1613283;88;21129;-59
2022/11/27 01:38:28;;;;;;;11.22;9.28;;;;;;;7.18;64.23;102578.10;1604524;88;21112;-59
2022/11/27 01:41:04;;;;;;;10.43;8.48;;;;;;;7.17;64.38;102578.52;1613422;88;21105;-59
2022/11/27 01:43:44;;;;;;;10.08;8.43;;;;;;;7.18;64.21;102584.58;1613610;88;22292;-58
2022/11/27 01:46:35;;;;;;;10.70;8.93;;;;;;;7.19;64.26;102585.05;1610610;88;21041;-58
2022/11/27 01:49:16;;;;;;;9.88;8.83;;;;;;;7.20;64.21;102580.30;1613839;88;21612;-58
2022/11/27 01:51:48;;;;;;;10.25;8.93;;;;;;;7.19;64.38;102577.28;1653962;86;21062;-58
2022/11/27 01:54:15;;;;;;;10.45;8.38;;;;;;;7.18;64.28;102575.10;1655655;86;21157;-58
2022/11/27 01:56:43;;;;;;;10.75;9.28;;;;;;;7.18;64.14;102574.22;1658013;86;21074;-58
2022/11/27 01:59:11;;;;;;;9.03;8.13;;;;;;;7.17;63.96;102572.49;1654327;86;21107;-58
2022/11/27 02:01:38;;;;;;;9.53;8.40;;;;;;;7.15;64.07;102572.88;1660371;86;21063;-58
2022/11/27 02:04:04;;;;;;;9.63;8.25;;;;;;;7.17;64.33;102582.84;1658107;86;21106;-59
2022/11/27 02:06:31;;;;;;;10.95;9.10;;;;;;;7.17;64.35;102581.11;1654306;86;21069;-58
2022/11/27 02:08:58;;;;;;;10.45;8.93;;;;;;;7.17;64.44;102582.84;1659388;81;21050;-58
2022/11/27 02:11:54;;;;;;;11.08;9.18;;;;;;;7.17;64.24;102571.20;1755245;80;21596;-58
2022/11/27 02:14:38;;;;;;;10.95;9.15;;;;;;;7.16;64.02;102588.85;1743766;80;21030;-58
2022/11/27 02:17:23;;;;;;;8.98;8.03;;;;;;;7.12;64.20;102595.69;1753915;80;21022;-58
2022/11/27 02:20:02;;;;;;;10.63;8.98;;;;;;;7.12;64.45;102599.57;1750369;80;20995;-58
2022/11/27 02:23:01;;;;;;;10.15;8.83;;;;;;;7.14;64.53;102601.77;1721130;83;21101;-59
2022/11/27 02:26:06;;;;;;;10.15;8.53;;;;;;;7.19;64.52;102604.47;1722973;83;21057;-58
2022/11/27 02:29:01;;;;;;;11.25;9.25;;;;;;;7.20;64.23;102608.78;1713349;83;21090;-60
2022/11/27 02:31:57;;;;;;;12.10;10.28;;;;;;;7.14;64.17;102608.66;1717249;83;21023;-57
2022/11/27 02:35:01;;;;;;;13.32;9.75;;;;;;;7.12;64.09;102619.40;1713539;83;21034;-59
2022/11/27 02:37:47;;;;;;;10.80;9.10;;;;;;;7.05;64.28;102614.91;1608814;86;21121;-59
2022/11/27 02:40:28;;;;;;;11.53;9.10;;;;;;;7.01;64.34;102616.56;1621939;86;21561;-59
2022/11/27 02:43:11;;;;;;;10.63;9.10;;;;;;;7.00;64.17;102627.78;1587087;87;21130;-59
2022/11/27 02:45:46;;;;;;;10.15;8.75;;;;;;;6.99;64.57;102630.30;1603204;88;21071;-59
2022/11/27 02:48:14;;;;;;;10.13;9.00;;;;;;;7.06;64.73;102638.67;1577710;89;21601;-59
2022/11/27 02:50:43;;;;;;;10.10;8.75;;;;;;;7.07;64.54;102631.34;1571986;89;21625;-59
2022/11/27 02:53:14;;;;;;;10.28;8.65;;;;;;;7.08;64.67;102637.88;1600304;88;21590;-56
2022/11/27 02:55:41;;;;;;;12.58;9.53;;;;;;;7.12;64.58;102648.75;1581006;89;21157;-59
2022/11/27 02:58:13;;;;;;;10.45;9.25;;;;;;;7.11;64.07;102643.11;1592642;89;21115;-56
2022/11/27 03:00:40;;;;;;;12.43;9.50;;;;;;;7.10;64.11;102645.67;1580149;89;21077;-60
2022/11/27 03:03:09;;;;;;;11.48;9.60;;;;;;;7.07;64.12;102645.59;1584678;89;21082;-59
2022/11/27 03:05:39;;;;;;;11.15;9.88;;;;;;;7.03;64.25;102641.18;1590804;89;21097;-56
2022/11/27 03:08:22;;;;;;;9.78;8.78;;;;;;;7.03;64.48;102648.95;1573245;89;21029;-59
2022/11/27 03:11:03;;;;;;;11.18;10.00;;;;;;;7.01;64.60;102650.22;1540969;91;21117;-57
2022/11/27 03:13:34;;;;;;;10.65;9.28;;;;;;;7.01;64.66;102648.03;1574478;89;21211;-59
2022/11/27 03:16:25;;;;;;;10.00;9.00;;;;;;;7.03;64.80;102643.77;1605105;88;21026;-59
2022/11/27 03:19:22;;;;;;;11.08;9.38;;;;;;;7.07;64.71;102650.77;1591275;89;21094;-58
2022/11/27 03:21:57;;;;;;;11.20;9.60;;;;;;;7.08;64.35;102652.53;1579010;89;21039;-59
2022/11/27 03:24:23;;;;;;;10.98;9.18;;;;;;;7.04;64.35;102655.89;1570509;89;21054;-59
2022/11/27 03:26:50;;;;;;;12.20;9.50;;;;;;;7.04;64.58;102661.95;1572814;90;21086;-59
2022/11/27 03:29:22;;;;;;;11.12;9.43;;;;;;;7.05;64.36;102660.20;1576030;90;21526;-59
2022/11/27 03:31:48;;;;;;;11.83;10.30;;;;;;;7.05;64.31;102662.80;1542305;92;21142;-59
2022/11/27 03:34:15;;;;;;;11.33;9.38;;;;;;;7.03;64.10;102656.71;1540410;91;21188;-58
2022/11/27 03:36:42;;;;;;;10.93;9.75;;;;;;;7.01;64.16;102660.98;1540470;92;21164;-59
2022/11/27 03:39:08;;;;;;;12.28;10.32;;;;;;;7.02;64.24;102662.74;1558758;89;21046;-58
2022/11/27 03:41:54;;;;;;;12.50;10.15;;;;;;;6.99;64.25;102667.84;1595902;87;21558;-59
2022/11/27 03:44:37;;;;;;;14.15;10.38;;;;;;;6.98;64.24;102671.28;1539528;91;21144;-59
2022/11/27 03:47:27;;;;;;;10.93;9.30;;;;;;;6.96;64.56;102669.08;1545806;86;21119;-59
2022/11/27 03:50:21;;;;;;;11.93;10.25;;;;;;;6.97;64.63;102675.98;1639332;86;21035;-58
2022/11/27 03:53:09;;;;;;;12.45;9.78;;;;;;;6.95;64.58;102668.60;1619732;86;21063;-59
2022/11/27 03:56:00;;;;;;;11.18;9.98;;;;;;;6.94;64.71;102664.28;1631286;86;21031;-59
2022/11/27 03:58:49;;;;;;;10.80;9.30;;;;;;;6.93;64.65;102665.11;1627432;86;21834;-58
2022/11/27 04:01:16;;;;;;;12.85;10.70;;;;;;;6.94;64.68;102666.46;1585464;89;21600;-60
2022/11/27 04:03:43;;;;;;;13.93;10.38;;;;;;;6.96;64.74;102666.48;1551163;90;21118;-59
2022/11/27 04:06:10;;;;;;;11.08;9.48;;;;;;;6.98;64.60;102661.81;1543046;91;21173;-56
2022/11/27 04:08:38;;;;;;;10.50;9.13;;;;;;;6.98;64.52;102666.98;1534462;92;21071;-57
2022/11/27 04:11:05;;;;;;;10.70;9.13;;;;;;;6.99;64.82;102673.02;1570143;90;21623;-59
2022/11/27 04:13:32;;;;;;;11.50;10.20;;;;;;;7.02;64.87;102671.80;1576724;90;21113;-59
2022/11/27 04:16:01;;;;;;;11.40;9.68;;;;;;;7.05;64.60;102677.03;1567313;90;21392;-57
2022/11/27 04:18:27;;;;;;;11.78;10.32;;;;;;;7.03;64.47;102686.06;1557409;91;21205;-57
2022/11/27 04:20:54;;;;;;;12.90;10.03;;;;;;;7.02;64.50;102684.33;1552280;90;21186;-59
2022/11/27 04:23:20;;;;;;;12.63;10.20;;;;;;;7.02;64.28;102691.22;1567052;90;21617;-58
2022/11/27 04:25:48;;;;;;;11.60;9.08;;;;;;;6.98;64.44;102695.45;1585376;89;21075;-57
2022/11/27 04:28:16;;;;;;;12.23;10.20;;;;;;;6.95;64.42;102699.25;1556032;91;21078;-57
2022/11/27 04:30:44;;;;;;;11.53;10.10;;;;;;;6.99;64.56;102698.89;1624258;87;21073;-57
2022/11/27 04:33:11;;;;;;;11.78;9.55;;;;;;;7.00;64.49;102701.95;1615347;87;21116;-57
2022/11/27 04:35:38;;;;;;;10.72;9.63;;;;;;;7.02;64.69;102698.98;1623099;87;21117;-57
2022/11/27 04:38:04;;;;;;;12.10;9.58;;;;;;;7.03;64.55;102698.13;1626856;87;21068;-58
2022/11/27 04:40:31;;;;;;;12.35;9.85;;;;;;;7.03;64.56;102695.53;1613419;86;21074;-57
2022/11/27 04:42:58;;;;;;;11.43;9.70;;;;;;;7.04;64.50;102703.36;1646112;86;21087;-57
2022/11/27 04:45:24;;;;;;;10.75;9.65;;;;;;;7.04;64.46;102694.71;1641127;86;21574;-57
2022/11/27 04:47:51;;;;;;;11.70;9.95;;;;;;;7.02;64.33;102695.09;1644269;86;21050;-57
2022/11/27 04:50:18;;;;;;;11.63;10.20;;;;;;;6.99;64.19;102700.19;1591197;88;21133;-56
2022/11/27 04:52:44;;;;;;;11.57;10.35;;;;;;;6.99;64.46;102701.48;1612587;88;21541;-58
2022/11/27 04:55:11;;;;;;;13.10;10.72;;;;;;;6.95;64.14;102699.66;1646580;86;21016;-57
2022/11/27 04:57:37;;;;;;;11.75;10.32;;;;;;;6.92;64.22;102694.42;1703493;82;21043;-57
2022/11/27 05:00:05;;;;;;;11.15;9.98;;;;;;;6.89;64.15;102699.52;1702341;82;21038;-57
2022/11/27 05:02:32;;;;;;;12.75;10.60;;;;;;;6.88;64.41;102699.08;1726586;81;21057;-57
2022/11/27 05:04:59;;;;;;;10.88;9.13;;;;;;;6.87;64.28;102693.42;1765979;80;21497;-57
2022/11/27 05:07:26;;;;;;;12.95;10.15;;;;;;;6.88;64.50;102696.48;1761458;80;21001;-57
2022/11/27 05:09:53;;;;;;;12.88;9.53;;;;;;;6.87;64.49;102693.02;1763279;80;21073;-57
2022/11/27 05:12:20;;;;;;;10.05;9.00;;;;;;;6.90;64.73;102701.28;1767803;80;21098;-57
2022/11/27 05:14:46;;;;;;;12.28;10.38;;;;;;;6.94;64.76;102711.75;1750360;80;21054;-59
2022/11/27 05:17:14;;;;;;;10.80;9.70;;;;;;;6.94;64.32;102705.69;1756596;80;21031;-59
2022/11/27 05:19:41;;;;;;;10.85;9.60;;;;;;;6.91;64.52;102700.42;1756982;81;20980;-56
2022/11/27 05:22:07;;;;;;;11.65;9.88;;;;;;;6.92;64.50;102707.37;1759992;80;21045;-56
2022/11/27 05:24:35;;;;;;;10.88;9.73;;;;;;;6.94;64.54;102707.87;1753591;80;21039;-57
2022/11/27 05:27:02;;;;;;;11.60;10.35;;;;;;;6.92;64.42;102715.13;1757500;80;21028;-58
2022/11/27 05:29:29;;;;;;;11.43;9.80;;;;;;;6.90;64.55;102716.81;1756247;80;21114;-59
2022/11/27 05:31:57;;;;;;;10.63;9.38;;;;;;;6.90;64.53;102721.98;1757702;80;21074;-59
2022/11/27 05:34:23;;;;;;;12.00;10.78;;;;;;;6.88;64.51;102718.48;1761874;80;21550;-59
2022/11/27 05:36:50;;;;;;;11.10;9.70;;;;;;;6.87;64.42;102716.72;1763305;80;21006;-58
2022/11/27 05:39:16;;;;;;;10.85;9.65;;;;;;;6.89;64.45;102722.80;1753910;80;21081;-59
2022/11/27 05:41:43;;;;;;;11.33;9.68;;;;;;;6.89;64.22;102725.39;1751831;80;21090;-59
2022/11/27 05:44:13;;;;;;;10.98;9.55;;;;;;;6.88;64.36;102721.07;1758191;80;21536;-59
2022/11/27 05:46:42;;;;;;;10.75;9.53;;;;;;;6.89;64.48;102721.52;1755904;80;21025;-59
2022/11/27 05:49:13;;;;;;;10.88;9.30;;;;;;;6.90;64.26;102719.39;1765032;80;21521;-59
2022/11/27 05:51:39;;;;;;;10.03;8.90;;;;;;;6.93;64.40;102727.22;1761270;80;21023;-57
2022/11/27 05:54:06;;;;;;;11.15;9.45;;;;;;;6.96;64.59;102730.78;1737068;81;21062;-57
2022/11/27 05:56:33;;;;;;;12.47;10.30;;;;;;;6.98;64.30;102732.10;1744829;80;21030;-59
2022/11/27 05:58:59;;;;;;;10.90;9.63;;;;;;;6.98;64.25;102735.98;1759907;80;21087;-59
2022/11/27 06:01:26;;;;;;;11.28;10.08;;;;;;;6.98;64.28;102739.86;1761071;80;21068;-56
2022/11/27 06:03:52;;;;;;;12.85;9.58;;;;;;;6.98;64.15;102730.80;1758897;80;21544;-59
2022/11/27 06:06:19;;;;;;;10.93;9.33;;;;;;;6.94;64.34;102730.28;1755438;80;20999;-56
2022/11/27 06:08:47;;;;;;;10.53;9.38;;;;;;;7.00;64.37;102733.02;1768286;80;21059;-57
2022/11/27 06:11:18;;;;;;;11.53;8.98;;;;;;;7.02;64.25;102733.92;1761553;80;21510;-57
2022/11/27 06:13:45;;;;;;;10.55;8.98;;;;;;;7.04;64.04;102737.42;1753877;80;20987;-57
2022/11/27 06:16:22;;;;;;;10.50;8.98;;;;;;;7.05;64.12;102739.16;1758550;80;21514;-56
2022/11/27 06:18:53;;;;;;;11.45;9.48;;;;;;;7.11;63.92;102739.33;1751176;80;21629;-57
2022/11/27 06:21:21;;;;;;;12.18;10.58;;;;;;;7.13;63.67;102745.42;1753628;80;21034;-57
2022/11/27 06:23:48;;;;;;;10.13;9.00;;;;;;;7.14;63.71;102743.27;1766627;80;21006;-57
2022/11/27 06:26:18;;;;;;;11.28;9.88;;;;;;;7.12;63.41;102735.48;1757427;80;21018;-57
2022/11/27 06:28:45;;;;;;;11.95;9.45;;;;;;;7.12;63.35;102743.66;1760054;80;21069;-56
2022/11/27 06:31:15;;;;;;;11.85;9.85;;;;;;;7.12;63.41;102742.36;1752397;80;21534;-57
2022/11/27 06:33:41;;;;;;;10.28;9.13;;;;;;;7.15;63.48;102742.00;1770262;80;21010;-57
2022/11/27 06:36:08;;;;;;;11.90;9.70;;;;;;;7.17;63.31;102740.77;1761436;80;21046;-58
2022/11/27 06:38:36;;;;;;;12.50;10.35;;;;;;;7.20;62.99;102735.64;1761380;80;21090;-57
2022/11/27 06:41:06;;;;;;;10.80;9.70;;;;;;;7.14;62.89;102745.45;1758644;80;21052;-57
2022/11/27 06:43:33;;;;;;;12.58;9.88;;;;;;;7.11;62.97;102743.22;1690771;83;21033;-57
2022/11/27 06:46:01;;;;;;;10.18;9.05;;;;;;;7.11;62.92;102741.48;1693673;83;21011;-57
2022/11/27 06:48:28;;;;;;;12.98;9.88;;;;;;;7.08;62.97;102741.83;1682834;84;21058;-57
2022/11/27 06:51:05;;;;;;;11.75;10.30;;;;;;;7.07;62.95;102739.66;1700952;84;21034;-57
2022/11/27 06:53:35;;;;;;;12.60;10.55;;;;;;;7.06;62.91;102743.51;1653326;85;21037;-57
2022/11/27 06:56:04;;;;;;;11.08;9.90;;;;;;;7.04;62.94;102745.19;1690687;83;21019;-57
2022/11/27 06:58:31;;;;;;;11.65;9.88;;;;;;;7.04;63.05;102749.07;1688008;83;21022;-57
2022/11/27 07:01:00;;;;;;;13.08;10.88;;;;;;;7.03;63.13;102749.89;1694635;84;21601;-57
2022/11/27 07:03:27;;;;;;;12.07;10.53;;;;;;;7.01;62.94;102751.57;1604134;88;21076;-57
2022/11/27 07:05:54;;;;;;;12.05;10.50;;;;;;;7.00;63.23;102745.95;1588515;89;21040;-57
2022/11/27 07:08:22;;;;;;;11.83;10.43;;;;;;;7.00;63.39;102747.25;1594798;89;21071;-57
2022/11/27 07:10:48;;;;;;;12.13;10.30;;;;;;;7.01;63.58;102753.75;1594065;89;21166;-57
2022/11/27 07:13:15;;;;;;;13.53;11.28;;;;;;;7.06;63.53;102756.45;1593813;89;21145;-57
2022/11/27 07:15:42;;;;;;;12.65;10.90;;;;;;;7.09;63.61;102756.55;1594537;89;21068;-57
2022/11/27 07:18:10;;;;;;;13.78;11.15;;;;;;;7.11;63.53;102763.92;1594958;89;21546;-57
2022/11/27 07:20:36;;;;;;;13.70;10.98;;;;;;;7.14;63.26;102761.39;1594786;89;21099;-57
2022/11/27 07:23:03;;;;;;;12.45;10.40;;;;;;;7.15;63.35;102757.98;1592535;89;21088;-57
2022/11/27 07:25:30;;;;;;;13.13;11.05;;;;;;;7.20;63.44;102758.95;1592183;89;21135;-57
2022/11/27 07:27:57;;;;;;;13.08;11.48;;;;;;;7.22;63.24;102758.56;1593515;89;21076;-57
2022/11/27 07:30:24;;;;;;;14.50;11.20;;;;;;;7.23;63.36;102764.22;1592553;89;21097;-57
2022/11/27 07:32:51;;;;;;;11.73;10.48;;;;;;;7.27;63.28;102751.34;1592660;89;21052;-57
2022/11/27 07:35:17;;;;;;;12.65;10.68;;;;;;;7.32;63.12;102757.94;1592282;89;21551;-57
2022/11/27 07:37:44;;;;;;;11.78;10.48;;;;;;;7.34;62.91;102761.02;1594328;89;21128;-57
2022/11/27 07:40:12;;;;;;;12.70;10.40;;;;;;;7.31;62.55;102762.27;1595101;88;21069;-57
2022/11/27 07:42:38;;;;;;;12.18;10.80;;;;;;;7.26;62.67;102761.68;1613652;88;21685;-57
2022/11/27 07:45:07;;;;;;;12.25;10.38;;;;;;;7.23;62.96;102762.92;1614604;88;21127;-57
2022/11/27 07:47:34;;;;;;;12.35;10.78;;;;;;;7.24;62.85;102759.47;1615929;88;21510;-57
2022/11/27 07:50:01;;;;;;;13.10;10.80;;;;;;;7.29;62.67;102761.77;1620399;88;21057;-58
2022/11/27 07:52:27;;;;;;;14.05;11.85;;;;;;;7.30;62.29;102766.09;1616865;88;21011;-57
2022/11/27 07:54:54;;;;;;;15.43;12.07;;;;;;;7.19;62.64;102767.57;1613637;88;21608;-58
2022/11/27 07:57:21;;;;;;;14.87;11.20;;;;;;;7.15;62.60;102761.86;1601382;88;21053;-56
2022/11/27 08:52:51;;;;;;;13.00;11.55;;;;;;;5.41;73.79;102780.62;1758862;78;27334;-57
2022/11/27 08:55:18;;;;;;;13.53;10.40;;;;;;;6.44;68.90;102765.19;1720581;81;21017;-56
2022/11/27 08:57:45;;;;;;;12.28;10.75;;;;;;;6.70;67.54;102762.02;1739875;82;21062;-58
2022/11/27 09:00:14;;;;;;;14.10;11.03;;;;;;;6.81;66.63;102769.61;1743039;81;21005;-57
2022/11/27 09:02:41;;;;;;;11.05;9.70;;;;;;;6.91;66.36;102772.89;1731953;82;21528;-58
2022/11/27 09:05:09;;;;;;;12.78;10.53;;;;;;;7.03;65.88;102765.42;1735611;81;21053;-58
2022/11/27 09:07:37;;;;;;;13.05;10.45;;;;;;;7.13;65.36;102760.95;1731748;81;21068;-58
2022/11/27 09:10:06;;;;;;;12.88;10.10;;;;;;;7.16;65.00;102763.19;1722958;81;21032;-58
2022/11/27 09:12:32;;;;;;;11.63;10.40;;;;;;;7.20;64.70;102761.53;1724776;82;21001;-57
2022/11/27 09:14:59;;;;;;;10.43;9.30;;;;;;;7.25;64.26;102762.09;1721725;82;21043;-58
2022/11/27 09:17:26;;;;;;;11.95;10.08;;;;;;;7.30;64.28;102759.62;1734146;81;21081;-58
2022/11/27 09:19:53;;;;;;;11.43;9.58;;;;;;;7.36;64.21;102761.05;1725099;82;21039;-58
2022/11/27 09:22:19;;;;;;;13.48;9.98;;;;;;;7.38;63.33;102756.78;1732413;82;21072;-58
2022/11/27 09:24:46;;;;;;;10.38;9.25;;;;;;;7.38;63.47;102751.60;1730031;82;21051;-57
2022/11/27 09:27:12;;;;;;;12.20;9.85;;;;;;;7.44;63.92;102754.33;1726742;82;21054;-58
2022/11/27 09:29:39;;;;;;;9.63;8.63;;;;;;;7.52;63.85;102743.75;1714136;82;21106;-57
2022/11/27 09:32:06;;;;;;;13.03;10.60;;;;;;;7.62;63.67;102744.81;1734602;81;21609;-58
2022/11/27 09:34:32;;;;;;;14.50;10.40;;;;;;;7.68;63.11;102747.12;1723465;81;21005;-58
2022/11/27 09:36:59;;;;;;;13.22;10.05;;;;;;;7.68;63.10;102748.42;1733030;81;21051;-57
2022/11/27 09:39:32;;;;;;;12.93;11.05;;;;;;;7.73;63.44;102748.52;1731958;82;21765;-57
2022/11/27 09:41:58;;;;;;;14.00;10.70;;;;;;;7.78;63.05;102745.18;1715221;82;21525;-57
2022/11/27 09:44:50;;;;;;;13.13;10.20;;;;;;;7.78;62.79;102741.30;1728125;82;21029;-58
2022/11/27 09:47:43;;;;;;;13.10;10.80;;;;;;;7.77;62.83;102746.00;1725323;81;21040;-58
2022/11/27 09:50:17;;;;;;;12.15;9.53;;;;;;;7.78;62.84;102751.66;1715615;83;21034;-57
2022/11/27 09:53:07;;;;;;;15.08;10.13;;;;;;;7.78;62.61;102746.47;1626460;87;21166;-57
2022/11/27 09:55:40;;;;;;;13.05;10.58;;;;;;;7.78;62.13;102753.37;1537153;92;21105;-57
2022/11/27 09:58:35;;;;;;;12.55;10.05;;;;;;;7.73;62.02;102748.08;1617413;87;21057;-57
2022/11/27 10:01:16;;;;;;;11.70;9.68;;;;;;;7.67;61.79;102745.36;1620356;87;21089;-57
2022/11/27 10:03:43;;;;;;;12.50;9.70;;;;;;;7.64;62.24;102741.84;1600333;88;21091;-58
2022/11/27 10:06:44;;;;;;;12.30;9.60;;;;;;;7.69;62.13;102744.97;1622460;87;21612;-57
2022/11/27 10:09:56;;;;;;;13.35;10.15;;;;;;;7.70;62.04;102740.26;1607833;88;21642;-58
2022/11/27 10:12:31;;;;;;;12.03;10.65;;;;;;;7.72;61.84;102748.05;1587719;90;21073;-57
2022/11/27 10:15:09;;;;;;;11.40;9.35;;;;;;;7.67;62.11;102744.06;1602426;89;21079;-57
2022/11/27 10:17:42;;;;;;;11.65;9.75;;;;;;;7.69;61.99;102743.67;1602260;89;21091;-57
2022/11/27 10:20:35;;;;;;;;;;;;;;;7.71;61.90;102734.22;1574516;90;21080;-58
2022/11/27 10:23:23;;;;;;;13.20;9.88;;;;;;;7.71;62.10;102747.17;1521472;92;20241;-58
2022/11/27 10:26:01;;;;;;;11.90;9.60;;;;;;;7.68;62.18;102741.94;1516064;92;21113;-58
2022/11/27 10:28:45;;;;;;;12.15;9.83;;;;;;;7.66;62.14;102743.62;1471303;97;21150;-58
2022/11/27 10:31:26;;;;;;;11.53;9.35;;;;;;;7.64;62.58;102747.90;1454720;97;21124;-59
2022/11/27 10:33:55;;;;;;;10.97;9.63;;;;;;;7.66;62.76;102742.33;1470951;96;21169;-59
2022/11/27 10:36:35;;;;;;;12.07;9.65;;;;;;;7.65;62.35;102734.09;1474402;96;21057;-59
2022/11/27 10:39:04;;;;;;;11.38;9.93;;;;;;;7.58;62.61;102737.41;1484829;95;21648;-58
2022/11/27 10:41:35;;;;;;;10.58;9.05;;;;;;;7.58;62.72;102743.00;1502781;95;21965;-59
2022/11/27 10:44:26;;;;;;;11.70;9.90;;;;;;;7.59;62.90;102742.14;1436211;98;21151;-59
2022/11/27 10:46:56;;;;;;;12.50;9.70;;;;;;;7.64;62.85;102736.24;1438689;98;21166;-58
2022/11/27 10:49:22;;;;;;;11.75;9.38;;;;;;;7.72;62.75;102732.09;1429683;98;22205;-58
2022/11/27 10:51:49;;;;;;;10.98;8.55;;;;;;;7.77;62.52;102730.91;1429895;99;21631;-59
2022/11/27 10:54:35;;;;;;;11.75;9.83;;;;;;;7.80;62.13;102726.64;1440590;97;21153;-58
2022/11/27 10:57:24;;;;;;;12.03;9.13;;;;;;;7.75;61.93;102724.37;1429570;99;21138;-59
2022/11/27 11:00:14;;;;;;;10.50;8.28;;;;;;;7.71;62.06;102727.73;1438779;98;21192;-59
2022/11/27 11:02:40;;;;;;;9.60;7.90;;;;;;;7.76;61.92;102728.72;1407472;101;21265;-59
2022/11/27 11:08:16;;;;;;;10.65;8.70;;;;;;;7.56;61.98;102723.55;1338808;107;21684;-59
2022/11/27 11:10:58;;;;;;;13.90;9.13;;;;;;;7.23;62.85;102731.41;1375901;103;21619;-58
2022/11/27 11:13:32;;;;;;;9.78;8.78;;;;;;;7.11;63.17;102734.16;1376588;103;21681;-59
2022/11/27 11:16:07;;;;;;;8.40;7.45;;;;;;;7.10;63.67;102729.80;1348276;104;21162;-58
2022/11/27 11:18:42;;;;;;;9.55;7.90;;;;;;;7.13;63.44;102727.30;1318299;107;21185;-59
2022/11/27 11:21:27;;;;;;;8.73;6.97;;;;;;;7.11;63.05;102721.21;1333802;107;21185;-58
2022/11/27 11:24:06;;;;;;;9.55;7.58;;;;;;;7.10;63.19;102718.16;1313212;108;21198;-59
2022/11/27 11:26:42;;;;;;;9.93;8.18;;;;;;;7.10;63.43;102722.03;1341964;105;21196;-58
2022/11/27 11:29:32;;;;;;;9.43;7.58;;;;;;;7.12;63.61;102716.47;1360019;104;21096;-59
2022/11/27 11:32:10;;;;;;;7.92;7.12;;;;;;;7.13;63.55;102715.65;1318529;107;21172;-59
2022/11/27 11:34:43;;;;;;;6.97;6.22;;;;;;;7.15;63.83;102720.44;1343547;106;21188;-58
2022/11/27 11:37:27;;;;;;;8.03;6.95;;;;;;;7.19;63.91;102720.97;1334242;106;21199;-58
2022/11/27 11:40:00;;;;;;;7.83;6.78;;;;;;;7.22;63.48;102718.43;1349546;102;21179;-59
2022/11/27 11:42:30;;;;;;;6.80;6.10;;;;;;;7.19;63.12;102714.50;1380935;103;21193;-59
2022/11/27 11:45:07;;;;;;;8.13;6.58;;;;;;;7.19;63.19;102713.20;1374972;103;21628;-58
2022/11/27 11:47:35;;;;;;;8.08;6.20;;;;;;;7.20;63.11;102716.23;1371319;104;21122;-58
2022/11/27 11:50:02;;;;;;;6.47;5.87;;;;;;;7.21;63.14;102723.17;1381625;102;21616;-59
2022/11/27 11:52:46;;;;;;;7.25;5.35;;;;;;;7.21;62.72;102719.29;1400703;101;21696;-59
2022/11/27 11:55:28;;;;;;;7.08;5.87;;;;;;;7.18;62.72;102716.61;1402426;101;21205;-59
2022/11/27 11:58:22;;;;;;;7.58;5.42;;;;;;;7.16;62.81;102717.00;1400876;100;21105;-59
2022/11/27 12:00:50;;;;;;;6.28;5.53;;;;;;;7.18;62.94;102724.38;1439984;99;21269;-58
2022/11/27 12:03:48;;;;;;;6.05;5.45;;;;;;;7.18;62.91;102720.50;1462223;97;21139;-58
2022/11/27 12:06:26;;;;;;;4.80;4.35;;;;;;;7.15;62.99;102723.03;1521174;92;21132;-59
2022/11/27 12:09:04;;;;;;;6.58;5.05;;;;;;;7.14;63.01;102730.33;1550276;88;21573;-59
2022/11/27 12:11:55;;;;;;;5.60;5.05;;;;;;;7.14;62.76;102723.85;1596202;88;21121;-60
2022/11/27 12:14:44;;;;;;;8.68;5.30;;;;;;;7.13;62.90;102726.00;1600152;88;21659;-59
2022/11/27 12:17:37;;;;;;;5.58;4.97;;;;;;;7.13;62.75;102736.36;1607051;88;21603;-59
2022/11/27 12:20:20;;;;;;;4.72;4.22;;;;;;;7.05;62.40;102737.86;1550554;91;21128;-59
2022/11/27 12:23:15;;;;;;;5.03;4.53;;;;;;;7.02;62.53;102745.57;1489252;94;21245;-59
2022/11/27 12:26:10;;;;;;;5.78;5.08;;;;;;;6.98;62.50;102747.63;1476518;95;21750;-59
2022/11/27 12:28:54;;;;;;;6.05;5.12;;;;;;;6.96;62.63;102748.01;1474941;95;21064;-59
2022/11/27 12:32:08;;;;;;;4.85;4.33;;;;;;;6.95;62.82;102746.24;1472255;95;21161;-58
2022/11/27 12:38:44;;;;;;;5.53;4.78;;;;;;;6.53;64.28;102751.23;1807290;78;26198;-58
2022/11/27 12:41:44;;;;;;;11.22;9.55;;;;;;;6.89;62.89;102743.50;1723051;81;21041;-58
2022/11/27 12:44:20;;;;;;;8.33;6.83;;;;;;;7.21;62.14;102746.47;1686149;83;21090;-58
2022/11/27 12:46:58;;;;;;;8.05;6.03;;;;;;;7.35;61.45;102748.96;1586500;87;21148;-57
2022/11/27 12:49:35;;;;;;;8.13;6.67;;;;;;;7.39;61.26;102753.37;1604088;87;21128;-57
2022/11/27 12:52:18;;;;;;;6.95;6.15;;;;;;;7.47;60.91;102751.83;1594104;88;21034;-57